Terminal Aerodrome Forecast
Issued by NWS Wilmington, OH

Current Version | Previous Version | Graphics & Text | Print | Product List | Glossary On
Versions: 1 2 3 4 5 6 7 8 9 10 11 12 13 14 15 16 17 18 19 20 21 22 23 24 25 26 27 28 29 30 31
000
FTUS41 KILN 290717 AAA
TAFCVG
TAF AMD
KCVG 290717Z 2907/3012 29008KT 5SM -RA BR VCTS BKN007CB OVC110
     FM291300 20009KT P6SM SHRA VCTS OVC025CB
     FM291600 20007KT P6SM BKN050
     FM291900 35005KT P6SM BKN050
     FM300000 19010KT P6SM BKN250=

USA.gov is the U.S. government's official web portal to all federal, state and local government web resources and services.